TimeMDT,TemperatureF,Dew PointF,Humidity,Sea Level PressureIn,VisibilityMPH,Wind Direction,Wind SpeedMPH,Gust SpeedMPH,PrecipitationIn,Events,Conditions,WindDirDegrees,DateUTC
12:52 AM,35.6,14.0,41,30.00,10.0,North,4.6,-,N/A,,Clear,10,2012-10-21 06:52:00
1:52 AM,30.0,14.0,51,29.86,10.0,East,6.9,-,N/A,,Clear,100,2012-10-21 07:52:00
2:52 AM,32.0,12.9,45,29.85,10.0,SSE,9.2,-,N/A,,Clear,160,2012-10-21 08:52:00
3:52 AM,32.0,14.0,48,30.02,10.0,West,8.1,-,N/A,,Clear,270,2012-10-21 09:52:00
4:52 AM,26.1,14.0,60,29.86,10.0,Calm,Calm,-,N/A,,Clear,0,2012-10-21 10:52:00
5:52 AM,23.0,12.9,65,29.91,10.0,SE,4.6,-,N/A,,Clear,130,2012-10-21 11:52:00
6:52 AM,24.1,12.9,62,29.97,10.0,WSW,3.5,-,N/A,,Clear,250,2012-10-21 12:52:00
7:52 AM,28.0,15.1,58,30.00,10.0,Calm,Calm,-,N/A,,Clear,0,2012-10-21 13:52:00
8:52 AM,39.2,17.6,42,30.07,10.0,Calm,Calm,-,N/A,,Clear,0,2012-10-21 14:52:00
9:52 AM,45.0,19.0,36,29.97,10.0,SSE,4.6,-,N/A,,Clear,160,2012-10-21 15:52:00
10:52 AM,55.4,21.2,26,30.06,10.0,South,4.6,-,N/A,,Clear,180,2012-10-21 16:52:00
11:52 AM,60.1,25.0,26,29.90,10.0,West,6.9,-,N/A,,Clear,260,2012-10-21 17:52:00
12:52 PM,64.0,26.1,24,29.84,10.0,Variable,5.8,16.1,N/A,,Clear,0,2012-10-21 18:52:00
1:52 PM,64.0,25.0,23,29.83,10.0,Variable,4.6,-,N/A,,Clear,0,2012-10-21 19:52:00
2:52 PM,66.9,26.1,21,29.78,10.0,SSW,12.7,19.6,N/A,,Clear,200,2012-10-21 20:52:00
3:52 PM,66.9,25.0,21,29.78,10.0,SSW,13.8,-,N/A,,Clear,210,2012-10-21 21:52:00
4:52 PM,64.9,23.0,20,29.83,10.0,SW,13.8,-,N/A,,Clear,230,2012-10-21 22:52:00
5:52 PM,60.1,21.0,22,29.88,10.0,SW,11.5,-,N/A,,Clear,230,2012-10-21 23:52:00
6:52 PM,51.1,21.9,32,29.94,10.0,SW,9.2,-,N/A,,Clear,220,2012-10-22 00:52:00
7:52 PM,42.1,23.0,47,29.99,10.0,South,10.4,-,N/A,,Clear,170,2012-10-22 01:52:00
8:52 PM,43.0,24.1,47,29.93,10.0,South,10.4,-,N/A,,Clear,180,2012-10-22 02:52:00
9:52 PM,44.1,24.1,45,29.91,10.0,SSW,10.4,-,N/A,,Clear,200,2012-10-22 03:52:00
10:52 PM,41.0,24.1,51,29.89,10.0,South,5.8,-,N/A,,Clear,180,2012-10-22 04:52:00
11:52 PM,37.0,24.1,59,29.89,10.0,NW,5.8,-,N/A,,Clear,310,2012-10-22 05:52:00